Time;durP1;ratioP1;P1;durP2;ratioP2;P2;SDS_P1;SDS_P2;PMS_P1;PMS_P2;Temp;Humidity;BMP_temperature;BMP_pressure;BME280_temperature;BME280_humidity;BME280_pressure;Samples;Min_cycle;Max_cycle;Signal;HPM_P1;HPM_P2
2023/04/04 00:00:54;;;;;;;4.28;2.40;;;-1.70;99.90;;;;;;2094646;28;20684;-62
2023/04/04 00:02:00;;;;;;;4.32;2.42;;;-1.60;99.90;;;;;;2093359;28;20201;-61
2023/04/04 00:03:04;;;;;;;3.00;2.10;;;-1.60;99.90;;;;;;2094805;28;20219;-66
2023/04/04 00:04:09;;;;;;;8.02;2.65;;;-1.70;99.90;;;;;;2094479;28;20206;-66
2023/04/04 00:05:16;;;;;;;4.30;2.30;;;-1.70;99.90;;;;;;2094708;28;20238;-61
2023/04/04 00:06:21;;;;;;;3.75;2.17;;;-1.60;99.90;;;;;;2095058;28;20196;-61
2023/04/04 00:07:27;;;;;;;5.35;2.38;;;-1.80;99.90;;;;;;2094876;28;20183;-61
2023/04/04 00:08:33;;;;;;;3.80;2.20;;;-1.70;99.90;;;;;;2095122;28;20675;-61
2023/04/04 00:09:38;;;;;;;6.20;2.53;;;-1.80;99.90;;;;;;2094507;28;20175;-61
2023/04/04 00:10:44;;;;;;;7.72;2.30;;;-1.90;99.90;;;;;;2094566;28;20167;-62
2023/04/04 00:11:50;;;;;;;2.70;2.20;;;-1.80;99.90;;;;;;2093807;28;20192;-59
2023/04/04 00:12:56;;;;;;;3.22;2.33;;;-1.90;99.90;;;;;;2094419;28;20193;-60
2023/04/04 00:14:02;;;;;;;6.57;2.42;;;-1.90;99.90;;;;;;2093733;28;20191;-62
2023/04/04 00:15:05;;;;;;;2.85;2.47;;;-1.90;99.90;;;;;;2093947;28;20184;-60
2023/04/04 00:16:10;;;;;;;2.85;2.45;;;-1.90;99.90;;;;;;2090529;28;20250;-62
2023/04/04 00:17:16;;;;;;;4.25;2.38;;;-1.80;99.90;;;;;;2094014;28;20198;-61
2023/04/04 00:18:22;;;;;;;2.80;2.20;;;-1.90;99.90;;;;;;2093894;28;20203;-62
2023/04/04 00:19:28;;;;;;;4.63;2.22;;;-1.80;99.90;;;;;;2094112;28;20187;-63
2023/04/04 00:20:33;;;;;;;2.75;2.08;;;-1.90;99.90;;;;;;2094195;28;20187;-62
2023/04/04 00:21:39;;;;;;;3.17;2.63;;;-2.00;99.90;;;;;;2093653;28;20176;-62
2023/04/04 00:22:45;;;;;;;2.88;2.42;;;-2.00;99.90;;;;;;2093988;28;20203;-62
2023/04/04 00:23:53;;;;;;;3.65;2.50;;;-1.90;99.90;;;;;;2093754;28;20743;-62
2023/04/04 00:24:59;;;;;;;4.00;2.15;;;-1.90;99.90;;;;;;2096465;28;20570;-62
2023/04/04 00:26:05;;;;;;;8.48;2.30;;;-1.90;99.90;;;;;;2093934;28;20190;-63
2023/04/04 00:27:09;;;;;;;4.13;2.03;;;-1.90;99.90;;;;;;2093779;28;20328;-63
2023/04/04 00:28:15;;;;;;;4.15;2.10;;;-1.90;99.90;;;;;;2093971;28;20656;-60
2023/04/04 00:29:21;;;;;;;3.13;2.03;;;-1.90;99.90;;;;;;2094031;28;20198;-62
2023/04/04 00:30:28;;;;;;;4.25;2.40;;;-1.90;99.90;;;;;;2093876;28;20207;-61
2023/04/04 00:31:34;;;;;;;3.33;2.13;;;-1.90;99.90;;;;;;2093595;28;20175;-61
2023/04/04 00:32:40;;;;;;;4.72;2.40;;;-1.90;99.90;;;;;;2086832;28;20192;-62
2023/04/04 00:33:46;;;;;;;2.95;1.98;;;-1.90;99.90;;;;;;2093786;28;20226;-61
2023/04/04 00:34:56;;;;;;;3.60;2.42;;;-1.90;99.90;;;;;;2093867;28;20199;-61
2023/04/04 00:36:01;;;;;;;2.78;1.90;;;-1.80;99.90;;;;;;2094078;28;20273;-61
2023/04/04 00:37:06;;;;;;;3.00;2.10;;;-1.90;99.90;;;;;;2096819;28;20217;-61
2023/04/04 00:38:09;;;;;;;3.80;1.77;;;-1.80;99.90;;;;;;2092002;28;20246;-62
2023/04/04 00:39:16;;;;;;;3.20;1.98;;;-1.80;99.90;;;;;;2090340;28;20201;-61
2023/04/04 00:40:21;;;;;;;3.10;2.10;;;-1.90;99.90;;;;;;2093861;28;20672;-61
2023/04/04 00:41:27;;;;;;;4.22;2.45;;;-1.90;99.90;;;;;;2093303;28;20186;-61
2023/04/04 00:42:33;;;;;;;3.30;2.05;;;-1.90;99.90;;;;;;2093707;28;20190;-63
2023/04/04 00:43:39;;;;;;;3.20;2.03;;;-2.00;99.90;;;;;;2093826;28;20936;-60
2023/04/04 00:44:45;;;;;;;6.85;2.50;;;-2.00;99.90;;;;;;2093556;28;20213;-61
2023/04/04 00:45:51;;;;;;;2.30;1.70;;;-2.10;99.90;;;;;;2093327;28;20189;-62
2023/04/04 00:46:57;;;;;;;3.55;2.30;;;-2.00;99.90;;;;;;2093699;28;20216;-59
2023/04/04 00:48:03;;;;;;;2.75;1.95;;;-1.90;99.90;;;;;;2093191;28;20228;-62
2023/04/04 00:49:05;;;;;;;2.70;2.15;;;-1.90;99.90;;;;;;2093588;28;20202;-62
2023/04/04 00:50:10;;;;;;;4.30;2.20;;;-1.90;99.90;;;;;;2093960;28;20286;-61
2023/04/04 00:51:15;;;;;;;3.55;2.20;;;-2.00;99.90;;;;;;2092752;28;20201;-61
2023/04/04 00:52:22;;;;;;;2.58;2.20;;;-2.10;99.90;;;;;;2100022;28;20183;-61
2023/04/04 00:53:28;;;;;;;5.38;2.30;;;-2.10;99.90;;;;;;2100401;28;20596;-60
2023/04/04 00:54:34;;;;;;;4.22;2.00;;;-2.00;99.90;;;;;;2094254;28;20214;-59
2023/04/04 00:55:42;;;;;;;4.68;2.25;;;-2.10;99.90;;;;;;2093993;28;20186;-62
2023/04/04 00:56:53;;;;;;;3.45;1.90;;;-2.00;99.90;;;;;;2094172;28;20201;-60
2023/04/04 00:57:59;;;;;;;4.32;2.20;;;-2.00;99.90;;;;;;2093968;28;20675;-61
2023/04/04 00:59:06;;;;;;;3.15;1.95;;;-2.10;99.90;;;;;;2093875;28;20201;-60
2023/04/04 01:00:11;;;;;;;2.50;1.95;;;-2.20;99.90;;;;;;2093778;28;20192;-62
2023/04/04 01:01:16;;;;;;;3.22;2.40;;;-2.10;99.90;;;;;;2093719;28;20194;-60
2023/04/04 01:02:23;;;;;;;3.83;2.10;;;-2.10;99.90;;;;;;2094355;28;20203;-62
2023/04/04 01:03:29;;;;;;;2.70;2.10;;;-2.10;99.90;;;;;;2094256;28;20188;-62
2023/04/04 01:04:35;;;;;;;3.40;1.90;;;-2.20;99.90;;;;;;2093314;28;20246;-62
2023/04/04 01:05:42;;;;;;;5.28;2.10;;;-2.20;99.90;;;;;;2086656;28;20182;-60
2023/04/04 01:06:48;;;;;;;5.43;2.00;;;-2.10;99.90;;;;;;2086374;28;20198;-62
2023/04/04 01:07:55;;;;;;;6.18;2.13;;;-2.10;99.90;;;;;;2093011;28;20194;-62
2023/04/04 01:09:01;;;;;;;3.65;2.40;;;-2.20;99.90;;;;;;2093801;28;20614;-60
2023/04/04 01:10:05;;;;;;;4.50;2.08;;;-2.30;99.90;;;;;;2094020;28;20709;-61
2023/04/04 01:11:10;;;;;;;3.42;2.03;;;-2.30;99.90;;;;;;2094125;28;20188;-61
2023/04/04 01:12:17;;;;;;;2.20;1.90;;;-2.20;99.90;;;;;;2093663;28;20183;-60
2023/04/04 01:13:23;;;;;;;3.53;2.20;;;-2.20;99.90;;;;;;2093941;28;20269;-62
2023/04/04 01:14:29;;;;;;;5.18;2.03;;;-2.20;99.90;;;;;;2093622;28;20217;-62
2023/04/04 01:15:34;;;;;;;3.08;2.47;;;-2.30;99.90;;;;;;2093867;28;20267;-61
2023/04/04 01:16:40;;;;;;;4.68;1.95;;;-2.20;99.90;;;;;;2093861;28;20564;-61
2023/04/04 01:17:48;;;;;;;4.20;2.42;;;-2.30;99.90;;;;;;2093885;28;20222;-61
2023/04/04 01:18:55;;;;;;;3.45;2.00;;;-2.40;99.90;;;;;;2093378;28;20653;-61
2023/04/04 01:20:12;;;;;;;3.97;2.35;;;-2.50;99.90;;;;;;2093386;28;20278;-61
2023/04/04 01:21:20;;;;;;;5.47;2.28;;;-2.40;99.90;;;;;;2093302;28;20176;-61
2023/04/04 01:22:28;;;;;;;2.72;1.90;;;-2.40;99.90;;;;;;2092898;28;20218;-61
2023/04/04 01:23:56;;;;;;;5.93;2.30;;;-2.40;99.90;;;;;;2086582;28;20202;-61
2023/04/04 01:25:04;;;;;;;3.92;2.13;;;-2.40;99.90;;;;;;2094741;28;20203;-60
2023/04/04 01:26:09;;;;;;;4.78;2.30;;;-2.30;99.90;;;;;;2093528;28;20287;-59
2023/04/04 01:27:15;;;;;;;2.92;1.90;;;-2.20;99.90;;;;;;2093004;28;20217;-60
2023/04/04 01:28:21;;;;;;;4.35;2.13;;;-2.20;99.90;;;;;;2093514;28;20194;-62
2023/04/04 01:29:26;;;;;;;4.18;2.28;;;-2.20;99.90;;;;;;2093559;28;20210;-61
2023/04/04 01:30:35;;;;;;;2.75;1.95;;;-2.20;99.90;;;;;;2093908;28;20187;-60
2023/04/04 01:31:47;;;;;;;3.08;1.88;;;-2.30;99.90;;;;;;2092468;28;20195;-61
2023/04/04 01:33:13;;;;;;;4.35;2.25;;;-2.30;99.90;;;;;;2092990;28;20713;-61
2023/04/04 01:35:02;;;;;;;2.80;1.85;;;-2.30;99.90;;;;;;2093588;28;20246;-61
2023/04/04 01:36:17;;;;;;;3.65;2.05;;;-2.30;99.90;;;;;;2093407;28;20611;-59
2023/04/04 01:37:47;;;;;;;2.65;1.90;;;-2.30;99.90;;;;;;2093658;28;20192;-64
2023/04/04 01:39:04;;;;;;;4.07;2.10;;;-2.30;99.90;;;;;;2093725;28;20648;-60
2023/04/04 01:40:21;;;;;;;3.08;1.80;;;-2.30;99.90;;;;;;2092706;28;20328;-60
2023/04/04 01:41:32;;;;;;;2.72;1.83;;;-2.20;99.80;;;;;;2086581;28;20195;-60
2023/04/04 01:42:40;;;;;;;4.07;2.47;;;-2.30;99.60;;;;;;2092854;28;20577;-60
2023/04/04 01:43:46;;;;;;;2.20;1.80;;;-2.40;99.80;;;;;;2092257;28;20198;-60
2023/04/04 01:44:56;;;;;;;2.55;2.00;;;-2.40;99.90;;;;;;2092909;28;20220;-62
2023/04/04 01:46:02;;;;;;;4.18;2.53;;;-2.40;99.90;;;;;;2093230;28;20206;-59
2023/04/04 01:47:08;;;;;;;3.80;2.40;;;-2.40;99.90;;;;;;2093365;28;20211;-61
2023/04/04 01:48:10;;;;;;;3.28;2.00;;;-2.50;99.90;;;;;;2093261;28;20697;-61
2023/04/04 01:49:16;;;;;;;3.70;2.38;;;-2.50;99.90;;;;;;2093325;28;20194;-62
2023/04/04 01:50:22;;;;;;;2.42;2.00;;;-2.50;99.90;;;;;;2093566;28;20195;-61
2023/04/04 01:51:29;;;;;;;4.78;2.10;;;-2.50;99.90;;;;;;2093048;28;20193;-60
2023/04/04 01:52:36;;;;;;;3.65;2.15;;;-2.50;99.90;;;;;;2093896;28;20185;-60
2023/04/04 01:53:41;;;;;;;3.00;2.00;;;-2.50;99.90;;;;;;2093415;28;20187;-59
2023/04/04 01:54:47;;;;;;;3.30;2.65;;;-2.50;99.90;;;;;;2093582;28;20208;-60
2023/04/04 01:55:53;;;;;;;2.47;2.15;;;-2.50;99.90;;;;;;2093104;28;20217;-61
2023/04/04 01:56:59;;;;;;;2.53;2.28;;;-2.60;99.90;;;;;;2093437;28;20268;-62
2023/04/04 01:58:04;;;;;;;3.00;2.30;;;-2.60;99.90;;;;;;2093513;28;20197;-61
2023/04/04 01:59:10;;;;;;;2.78;2.08;;;-2.50;99.90;;;;;;2095897;28;20194;-60
2023/04/04 02:00:16;;;;;;;3.00;2.40;;;-2.50;99.90;;;;;;2093184;28;20261;-62
2023/04/04 02:01:21;;;;;;;4.95;3.80;;;-1.90;99.90;;;;;;2092620;28;20184;-62
2023/04/04 02:02:27;;;;;;;2.35;1.80;;;-2.60;99.90;;;;;;2092479;28;20273;-62
2023/04/04 02:03:33;;;;;;;3.58;2.00;;;-2.60;99.90;;;;;;2092812;28;20253;-62
2023/04/04 02:04:38;;;;;;;3.60;2.10;;;-2.60;99.90;;;;;;2093061;28;20235;-61
2023/04/04 02:05:45;;;;;;;3.03;2.30;;;-2.70;99.90;;;;;;2093337;28;20188;-62
2023/04/04 02:06:51;;;;;;;4.05;2.13;;;-2.70;99.90;;;;;;2093059;28;20217;-63
2023/04/04 02:07:57;;;;;;;3.72;2.33;;;-2.70;99.90;;;;;;2093559;28;20192;-62
2023/04/04 02:09:03;;;;;;;3.35;2.05;;;-2.70;99.90;;;;;;2093507;28;20186;-62
2023/04/04 02:10:05;;;;;;;3.22;2.20;;;-2.80;99.90;;;;;;2093505;28;20187;-61
2023/04/04 02:11:09;;;;;;;2.65;2.08;;;-2.70;99.90;;;;;;2093295;28;20193;-62
2023/04/04 02:12:15;;;;;;;3.03;2.05;;;-2.70;99.90;;;;;;2092942;28;20605;-60
2023/04/04 02:13:21;;;;;;;3.10;2.33;;;-2.70;99.90;;;;;;2093172;28;20198;-62
2023/04/04 02:14:27;;;;;;;3.83;2.05;;;-2.80;99.90;;;;;;2093147;28;20296;-62
2023/04/04 02:15:34;;;;;;;3.75;2.20;;;-2.80;99.90;;;;;;2093450;28;20218;-62
2023/04/04 02:16:40;;;;;;;3.70;2.50;;;-2.80;99.90;;;;;;2093548;28;20255;-62
2023/04/04 02:17:47;;;;;;;2.83;2.00;;;-2.90;99.90;;;;;;2093686;28;20537;-61
2023/04/04 02:18:54;;;;;;;3.10;2.15;;;-2.90;99.90;;;;;;2093122;28;20189;-62
2023/04/04 02:20:00;;;;;;;4.25;2.22;;;-2.90;99.90;;;;;;2093295;28;20197;-60
2023/04/04 02:21:04;;;;;;;2.70;2.17;;;-2.80;99.90;;;;;;2092746;28;20201;-62
2023/04/04 02:22:09;;;;;;;2.38;2.00;;;-2.90;99.90;;;;;;2092757;28;20216;-62
2023/04/04 02:23:15;;;;;;;3.17;2.00;;;-2.90;99.90;;;;;;2093108;28;20699;-62
2023/04/04 02:24:21;;;;;;;3.40;2.13;;;-2.90;99.90;;;;;;2093772;28;20222;-62
2023/04/04 02:25:27;;;;;;;2.58;2.20;;;-2.90;99.90;;;;;;2096699;28;20763;-61
2023/04/04 02:26:32;;;;;;;5.28;2.38;;;-3.00;99.90;;;;;;2086709;28;20210;-61
2023/04/04 02:27:38;;;;;;;4.80;2.30;;;-3.00;99.90;;;;;;2092425;28;20184;-62
2023/04/04 02:28:44;;;;;;;3.25;2.60;;;-2.90;99.90;;;;;;2093380;28;20260;-60
2023/04/04 02:29:49;;;;;;;2.58;2.20;;;-2.90;99.90;;;;;;2096025;28;20182;-62
2023/04/04 02:30:59;;;;;;;6.38;2.50;;;-2.90;99.90;;;;;;2093106;28;20242;-61
2023/04/04 02:32:04;;;;;;;3.65;2.47;;;-3.00;99.90;;;;;;2092601;28;20607;-62
2023/04/04 02:33:09;;;;;;;2.88;2.20;;;-3.00;99.90;;;;;;2092926;28;20182;-62
2023/04/04 02:34:15;;;;;;;3.70;2.30;;;-3.00;99.90;;;;;;2093129;28;20507;-61
2023/04/04 02:35:21;;;;;;;3.30;2.33;;;-3.00;99.90;;;;;;2092965;28;20184;-62
2023/04/04 02:36:27;;;;;;;4.57;1.98;;;-3.00;99.90;;;;;;2093405;28;20197;-62
2023/04/04 02:37:33;;;;;;;3.63;2.28;;;-3.00;99.90;;;;;;2093645;28;20552;-62
2023/04/04 02:38:39;;;;;;;4.30;2.63;;;-3.00;99.90;;;;;;2093709;28;20265;-60
2023/04/04 02:39:44;;;;;;;3.63;2.38;;;-3.20;99.90;;;;;;2095285;28;20176;-60
2023/04/04 02:40:51;;;;;;;4.57;2.00;;;-3.20;99.90;;;;;;2094882;28;20185;-61
2023/04/04 02:41:56;;;;;;;3.20;2.30;;;-3.20;99.90;;;;;;2094181;28;20182;-61
2023/04/04 02:43:02;;;;;;;4.13;2.35;;;-3.30;99.90;;;;;;2096483;28;20272;-62
2023/04/04 02:44:04;;;;;;;5.13;2.03;;;-3.20;99.90;;;;;;2091845;28;20190;-59
2023/04/04 02:45:10;;;;;;;3.22;2.30;;;-3.30;99.90;;;;;;2090665;28;20673;-60
2023/04/04 02:46:16;;;;;;;4.82;2.67;;;-3.40;99.90;;;;;;2095858;28;20597;-59
2023/04/04 02:47:22;;;;;;;3.28;2.22;;;-3.30;99.90;;;;;;2094447;28;20188;-60
2023/04/04 02:48:28;;;;;;;4.68;2.35;;;-3.30;99.90;;;;;;2094870;28;20185;-62
2023/04/04 02:49:34;;;;;;;3.38;2.55;;;-3.30;99.90;;;;;;2094571;28;20680;-63
2023/04/04 02:50:40;;;;;;;5.43;2.35;;;-3.30;99.90;;;;;;2099702;28;20662;-60
2023/04/04 02:51:46;;;;;;;6.72;2.30;;;-3.30;99.90;;;;;;2099049;28;20191;-61
2023/04/04 02:52:53;;;;;;;3.80;2.70;;;-3.30;99.90;;;;;;2098932;28;20189;-61
2023/04/04 02:54:01;;;;;;;6.80;2.72;;;-3.40;99.90;;;;;;2095003;28;20271;-60
2023/04/04 02:55:06;;;;;;;4.35;2.70;;;-3.40;99.90;;;;;;2095218;28;20177;-61
2023/04/04 02:56:09;;;;;;;5.13;2.70;;;-3.40;99.90;;;;;;2094337;28;20226;-61
2023/04/04 02:57:15;;;;;;;5.00;2.50;;;-3.40;99.90;;;;;;2094515;28;20204;-60
2023/04/04 02:58:21;;;;;;;3.97;2.60;;;-3.30;99.90;;;;;;2094834;28;20192;-63
2023/04/04 02:59:27;;;;;;;4.32;2.25;;;-3.50;99.90;;;;;;2094631;28;20186;-58
2023/04/04 03:00:32;;;;;;;4.07;2.50;;;-3.40;99.90;;;;;;2092344;28;20199;-61
2023/04/04 03:01:38;;;;;;;3.42;2.40;;;-3.40;99.90;;;;;;2094157;28;20268;-61
2023/04/04 03:02:45;;;;;;;7.20;2.92;;;-3.40;99.90;;;;;;2095285;28;20191;-61
2023/04/04 03:03:50;;;;;;;2.72;1.95;;;-3.40;99.90;;;;;;2092309;28;20197;-61
2023/04/04 03:04:56;;;;;;;4.63;2.92;;;-3.30;99.90;;;;;;2094795;28;20202;-62
2023/04/04 03:06:02;;;;;;;4.40;2.63;;;-3.40;99.90;;;;;;2095094;28;20184;-62
2023/04/04 03:07:04;;;;;;;5.75;3.00;;;-3.40;99.90;;;;;;2095077;28;20247;-63
2023/04/04 03:08:09;;;;;;;6.45;2.47;;;-3.40;99.90;;;;;;2094960;28;20185;-61
2023/04/04 03:09:16;;;;;;;5.22;2.55;;;-3.40;99.90;;;;;;2094772;28;20185;-62
2023/04/04 03:10:23;;;;;;;4.22;2.60;;;-3.40;99.90;;;;;;2094605;28;20188;-61
2023/04/04 03:11:28;;;;;;;3.88;2.72;;;-3.50;99.90;;;;;;2093998;28;20188;-61
2023/04/04 03:12:34;;;;;;;4.53;3.05;;;-3.50;99.90;;;;;;2094823;28;20187;-60
2023/04/04 03:13:40;;;;;;;3.80;2.78;;;-3.50;99.90;;;;;;2095075;28;20637;-61
2023/04/04 03:14:46;;;;;;;3.92;2.42;;;-3.40;99.90;;;;;;2095098;28;20200;-61
2023/04/04 03:16:01;;;;;;;4.38;2.70;;;-3.40;99.90;;;;;;2094909;28;20194;-61
2023/04/04 03:17:05;;;;;;;6.35;2.55;;;-3.40;99.90;;;;;;2094304;28;20184;-61
2023/04/04 03:18:09;;;;;;;2.95;2.00;;;-3.40;99.90;;;;;;2094199;28;20181;-61
2023/04/04 03:19:15;;;;;;;3.95;2.28;;;-3.60;99.90;;;;;;2094410;28;20268;-62
2023/04/04 03:20:21;;;;;;;5.50;2.42;;;-3.50;99.90;;;;;;2094271;28;20192;-62
2023/04/04 03:21:27;;;;;;;3.35;2.47;;;-3.60;99.90;;;;;;2093856;28;20205;-62
2023/04/04 03:22:33;;;;;;;4.65;2.60;;;-3.60;99.90;;;;;;2094453;28;20658;-60
2023/04/04 03:23:38;;;;;;;4.70;2.78;;;-3.60;99.90;;;;;;2094985;28;20204;-61
2023/04/04 03:24:44;;;;;;;5.15;2.78;;;-3.60;99.90;;;;;;2094635;28;20299;-62
2023/04/04 03:25:50;;;;;;;4.38;2.72;;;-3.50;99.90;;;;;;2094743;28;20651;-63
2023/04/04 03:26:56;;;;;;;3.80;2.83;;;-3.60;99.90;;;;;;2094200;28;20250;-61
2023/04/04 03:28:09;;;;;;;5.22;2.67;;;-3.60;99.90;;;;;;2094447;28;20790;-62
2023/04/04 03:29:15;;;;;;;4.18;2.65;;;-3.70;99.90;;;;;;2094272;28;20207;-62
2023/04/04 03:30:20;;;;;;;7.75;2.55;;;-3.70;99.90;;;;;;2094258;28;20182;-62
2023/04/04 03:31:26;;;;;;;2.83;2.20;;;-3.70;99.90;;;;;;2093496;28;20197;-62
2023/04/04 03:32:32;;;;;;;2.95;2.40;;;-3.70;99.90;;;;;;2094645;28;20189;-62
2023/04/04 03:33:38;;;;;;;5.03;2.95;;;-3.70;99.90;;;;;;2094372;28;20679;-62
2023/04/04 03:34:44;;;;;;;3.38;2.40;;;-3.70;99.90;;;;;;2094636;28;20231;-62
2023/04/04 03:35:49;;;;;;;3.58;2.40;;;-3.70;99.90;;;;;;2094544;28;20181;-63
2023/04/04 03:36:56;;;;;;;3.80;2.53;;;-3.80;99.90;;;;;;2094278;28;20653;-62
2023/04/04 03:38:02;;;;;;;4.25;2.67;;;-3.80;99.90;;;;;;2094221;28;20198;-62
2023/04/04 03:39:04;;;;;;;3.30;2.90;;;-3.80;99.90;;;;;;2094022;28;20177;-62
2023/04/04 03:40:10;;;;;;;3.78;2.72;;;-3.80;99.90;;;;;;2094226;28;20648;-62
2023/04/04 03:41:15;;;;;;;4.03;2.80;;;-3.80;99.90;;;;;;2093814;28;20180;-62
2023/04/04 03:42:21;;;;;;;3.83;2.40;;;-3.80;99.90;;;;;;2094330;28;20746;-62
2023/04/04 03:43:27;;;;;;;3.80;2.30;;;-3.80;99.90;;;;;;2094173;28;20189;-62
2023/04/04 03:44:32;;;;;;;3.28;2.38;;;-3.80;99.90;;;;;;2094589;28;20677;-62
2023/04/04 03:45:38;;;;;;;7.60;4.53;;;-3.80;99.90;;;;;;2094446;28;20190;-62
2023/04/04 03:46:44;;;;;;;6.57;3.35;;;-3.80;99.90;;;;;;2093855;28;20254;-62
2023/04/04 03:47:50;;;;;;;5.38;3.47;;;-3.80;99.90;;;;;;2094229;28;20187;-60
2023/04/04 03:48:56;;;;;;;11.60;6.82;;;-3.80;99.90;;;;;;2094519;28;20551;-62
2023/04/04 03:50:02;;;;;;;5.60;3.40;;;-3.80;99.90;;;;;;2094295;28;20191;-62
2023/04/04 03:51:04;;;;;;;5.38;3.22;;;-4.00;99.90;;;;;;2093423;28;20249;-62
2023/04/04 03:52:10;;;;;;;9.13;5.30;;;-3.90;99.90;;;;;;2092555;28;20676;-62
2023/04/04 03:53:15;;;;;;;7.72;4.65;;;-3.90;99.90;;;;;;2093643;28;20266;-59
2023/04/04 03:54:21;;;;;;;3.10;2.30;;;-3.90;99.90;;;;;;2093888;28;20215;-62
2023/04/04 03:55:27;;;;;;;5.47;3.28;;;-3.90;99.90;;;;;;2094188;28;20552;-62
2023/04/04 03:56:33;;;;;;;6.35;3.25;;;-3.80;99.90;;;;;;2093965;28;20195;-62
2023/04/04 03:57:38;;;;;;;5.75;3.47;;;-3.90;99.90;;;;;;2094107;28;20252;-62
2023/04/04 03:58:44;;;;;;;4.28;2.80;;;-3.90;99.90;;;;;;2094095;28;20184;-62
2023/04/04 03:59:50;;;;;;;7.72;4.80;;;-3.80;99.90;;;;;;2094185;28;20256;-59
2023/04/04 04:00:56;;;;;;;7.45;3.42;;;-4.00;99.90;;;;;;2093952;28;20564;-61
2023/04/04 04:02:01;;;;;;;3.55;2.67;;;-3.90;99.90;;;;;;2093313;28;20272;-63
2023/04/04 04:03:04;;;;;;;4.15;2.85;;;-3.90;99.90;;;;;;2093911;28;20181;-62
2023/04/04 04:04:09;;;;;;;3.97;3.00;;;-3.90;99.90;;;;;;2093783;28;20289;-62
2023/04/04 04:05:15;;;;;;;4.72;3.00;;;-3.90;99.90;;;;;;2093893;28;20561;-62
2023/04/04 04:06:21;;;;;;;4.57;2.90;;;-3.90;99.90;;;;;;2093736;28;20263;-62
2023/04/04 04:07:27;;;;;;;9.40;3.22;;;-3.80;99.90;;;;;;2093970;28;20645;-63
2023/04/04 04:08:32;;;;;;;7.82;3.35;;;-3.90;99.90;;;;;;2093977;28;20177;-62
2023/04/04 04:09:38;;;;;;;6.25;3.55;;;-3.90;99.90;;;;;;2094061;28;20262;-62
2023/04/04 04:10:44;;;;;;;6.70;3.85;;;-3.90;99.90;;;;;;2093834;28;20684;-62
2023/04/04 04:11:50;;;;;;;5.63;3.70;;;-3.80;99.90;;;;;;2093323;28;20185;-62
2023/04/04 04:12:55;;;;;;;7.78;3.50;;;-3.80;99.90;;;;;;2094151;28;20195;-62
2023/04/04 04:14:02;;;;;;;6.22;3.40;;;-3.80;99.90;;;;;;2094419;28;20188;-62
2023/04/04 04:15:05;;;;;;;5.03;3.03;;;-3.80;99.90;;;;;;2094597;28;20190;-60
2023/04/04 04:16:10;;;;;;;4.40;3.10;;;-3.90;99.90;;;;;;2094697;28;20195;-65
2023/04/04 04:17:15;;;;;;;5.22;3.40;;;-3.90;99.90;;;;;;2094076;28;20204;-60
2023/04/04 04:18:21;;;;;;;5.25;3.63;;;-3.90;99.90;;;;;;2096583;28;20200;-62
2023/04/04 04:19:27;;;;;;;4.15;3.30;;;-3.90;99.90;;;;;;2093935;28;20185;-62
2023/04/04 04:20:32;;;;;;;4.70;3.60;;;-3.90;99.90;;;;;;2094163;28;20191;-62
2023/04/04 04:21:38;;;;;;;5.50;3.20;;;-3.90;99.90;;;;;;2093276;28;20679;-61
2023/04/04 04:22:47;;;;;;;5.38;3.75;;;-3.80;99.90;;;;;;2094044;28;20195;-62
2023/04/04 04:23:53;;;;;;;5.53;3.55;;;-3.80;99.90;;;;;;2093884;28;20209;-61
2023/04/04 04:24:58;;;;;;;5.45;3.00;;;-3.80;99.90;;;;;;2093982;28;20194;-61
2023/04/04 04:26:05;;;;;;;4.45;2.95;;;-3.90;99.90;;;;;;2093647;28;20653;-62
2023/04/04 04:27:09;;;;;;;6.07;3.75;;;-3.90;99.90;;;;;;2093284;28;20271;-61
2023/04/04 04:28:15;;;;;;;5.80;3.95;;;-3.90;99.90;;;;;;2097509;28;20185;-62
2023/04/04 04:29:21;;;;;;;7.20;4.40;;;-3.90;99.90;;;;;;2096381;28;20183;-64
2023/04/04 04:30:26;;;;;;;4.32;3.30;;;-3.90;99.90;;;;;;2094809;28;20183;-62
2023/04/04 04:31:32;;;;;;;5.95;3.50;;;-3.90;99.90;;;;;;2094066;28;20293;-62
2023/04/04 04:32:38;;;;;;;4.38;3.40;;;-4.00;99.90;;;;;;2094343;28;20172;-61
2023/04/04 04:33:44;;;;;;;5.95;3.22;;;-4.00;99.90;;;;;;2094279;28;20172;-62
2023/04/04 04:34:50;;;;;;;4.80;3.20;;;-4.00;99.90;;;;;;2094163;28;20192;-62
2023/04/04 04:36:03;;;;;;;5.80;3.55;;;-4.00;99.90;;;;;;2093843;28;20270;-62
2023/04/04 04:37:05;;;;;;;5.30;3.13;;;-4.10;99.90;;;;;;2093950;28;20546;-62
2023/04/04 04:38:10;;;;;;;3.63;2.75;;;-4.00;99.90;;;;;;2093767;28;20195;-61
2023/04/04 04:39:16;;;;;;;4.50;3.25;;;-4.00;99.90;;;;;;2093847;28;20216;-61
2023/04/04 04:40:21;;;;;;;4.72;3.25;;;-3.90;99.90;;;;;;2094266;28;20188;-62
2023/04/04 04:41:28;;;;;;;5.47;3.47;;;-3.90;99.90;;;;;;2093246;28;20189;-62
2023/04/04 04:42:34;;;;;;;4.47;3.13;;;-3.90;99.90;;;;;;2093250;28;20367;-61
2023/04/04 04:43:40;;;;;;;4.72;2.80;;;-4.00;99.90;;;;;;2093209;28;20241;-60
2023/04/04 04:44:46;;;;;;;4.95;2.90;;;-4.00;99.90;;;;;;2094346;28;20231;-62
2023/04/04 04:45:52;;;;;;;4.65;3.05;;;-4.10;99.90;;;;;;2093696;28;20197;-61
2023/04/04 04:46:57;;;;;;;3.95;3.20;;;-4.10;99.90;;;;;;2092370;28;20639;-62
2023/04/04 04:48:03;;;;;;;4.78;3.22;;;-4.10;99.90;;;;;;2094081;28;20184;-62
2023/04/04 04:49:05;;;;;;;6.10;2.85;;;-4.00;99.90;;;;;;2093621;28;20244;-62
2023/04/04 04:50:10;;;;;;;4.25;3.03;;;-4.00;99.90;;;;;;2097236;28;20211;-62
2023/04/04 04:51:16;;;;;;;4.18;3.00;;;-3.90;99.90;;;;;;2099433;28;20184;-61
2023/04/04 04:52:22;;;;;;;3.25;2.70;;;-3.90;99.90;;;;;;2097322;28;20193;-59
2023/04/04 04:53:27;;;;;;;6.30;2.80;;;-3.90;99.90;;;;;;2094793;28;20698;-60
2023/04/04 04:54:33;;;;;;;3.95;2.80;;;-4.10;99.90;;;;;;2094214;28;20237;-62
2023/04/04 04:55:41;;;;;;;4.93;3.13;;;-4.10;99.90;;;;;;2094396;28;20177;-61
2023/04/04 04:56:47;;;;;;;4.18;2.67;;;-4.00;99.90;;;;;;2093618;28;20219;-62
2023/04/04 04:57:53;;;;;;;4.25;3.00;;;-3.90;99.90;;;;;;2093953;28;20188;-62
2023/04/04 04:58:59;;;;;;;3.92;2.92;;;-3.80;99.90;;;;;;2092934;28;20261;-59
2023/04/04 05:00:05;;;;;;;3.92;2.85;;;-3.80;99.90;;;;;;2093182;28;20192;-62
2023/04/04 05:01:09;;;;;;;3.38;2.58;;;-3.90;99.90;;;;;;2093324;28;20601;-62
2023/04/04 05:02:15;;;;;;;3.40;2.60;;;-3.80;99.90;;;;;;2092917;28;20265;-60
2023/04/04 05:03:21;;;;;;;8.70;3.30;;;-3.90;99.90;;;;;;2093660;28;20227;-64
2023/04/04 05:04:27;;;;;;;3.30;2.67;;;-3.90;99.90;;;;;;2093581;28;20210;-62
2023/04/04 05:05:36;;;;;;;5.53;3.13;;;-3.90;99.90;;;;;;2093479;28;20205;-61
2023/04/04 05:06:42;;;;;;;4.18;2.80;;;-3.90;99.90;;;;;;2093444;28;20740;-62
2023/04/04 05:07:48;;;;;;;6.72;3.33;;;-3.80;99.90;;;;;;2093773;28;20176;-62
2023/04/04 05:08:53;;;;;;;4.97;2.47;;;-3.80;99.90;;;;;;2093518;28;20597;-62
2023/04/04 05:10:01;;;;;;;5.47;3.05;;;-3.80;99.90;;;;;;2093782;28;20180;-62
2023/04/04 05:11:04;;;;;;;6.03;3.53;;;-3.80;99.90;;;;;;2093446;28;20200;-60
2023/04/04 05:12:09;;;;;;;4.07;2.70;;;-3.80;99.90;;;;;;2093168;28;20207;-62
2023/04/04 05:13:15;;;;;;;4.15;2.80;;;-4.00;99.90;;;;;;2093780;28;20174;-61
2023/04/04 05:14:21;;;;;;;5.10;3.35;;;-4.10;99.90;;;;;;2097036;28;20607;-62
2023/04/04 05:15:30;;;;;;;3.65;2.85;;;-3.90;99.90;;;;;;2097191;28;20817;-62
2023/04/04 05:16:36;;;;;;;5.82;2.70;;;-3.90;99.90;;;;;;2093614;28;20185;-61
2023/04/04 05:17:41;;;;;;;3.45;2.55;;;-3.90;99.90;;;;;;2093423;28;20204;-61
2023/04/04 05:18:47;;;;;;;5.10;2.97;;;-3.90;99.90;;;;;;2093566;28;20225;-62
2023/04/04 05:19:53;;;;;;;3.78;2.70;;;-3.90;99.90;;;;;;2093334;28;20188;-62
2023/04/04 05:20:58;;;;;;;7.00;3.38;;;-3.90;99.90;;;;;;2093402;28;20666;-60
2023/04/04 05:22:06;;;;;;;5.30;3.10;;;-3.90;99.90;;;;;;2092731;28;20189;-62
2023/04/04 05:23:09;;;;;;;4.68;3.13;;;-3.80;99.90;;;;;;2093393;28;20196;-61
2023/04/04 05:24:16;;;;;;;4.95;3.25;;;-3.80;99.90;;;;;;2093303;28;20282;-61
2023/04/04 05:25:21;;;;;;;5.30;3.20;;;-3.80;99.90;;;;;;2093407;28;20219;-62
2023/04/04 05:26:28;;;;;;;5.32;3.17;;;-3.80;99.90;;;;;;2093325;28;20245;-60
2023/04/04 05:27:34;;;;;;;5.53;3.20;;;-3.80;99.90;;;;;;2093256;28;20193;-61
2023/04/04 05:28:40;;;;;;;8.25;3.42;;;-3.90;99.90;;;;;;2093478;28;20188;-62
2023/04/04 05:29:47;;;;;;;5.60;3.50;;;-3.90;99.90;;;;;;2093204;28;20874;-62
2023/04/04 05:30:53;;;;;;;3.83;3.03;;;-3.80;99.90;;;;;;2093499;28;20177;-62
2023/04/04 05:31:58;;;;;;;5.97;3.80;;;-3.90;99.90;;;;;;2092660;28;20195;-61
2023/04/04 05:33:04;;;;;;;4.43;3.15;;;-3.80;99.90;;;;;;2093306;28;20188;-61
2023/04/04 05:34:09;;;;;;;8.38;4.85;;;-3.70;99.90;;;;;;2093156;28;20223;-62
2023/04/04 05:35:15;;;;;;;10.73;5.65;;;-3.70;99.90;;;;;;2093796;28;20207;-62
2023/04/04 05:36:21;;;;;;;12.43;6.00;;;-3.70;99.90;;;;;;2093639;28;20233;-62
2023/04/04 05:37:27;;;;;;;11.43;5.68;;;-3.80;99.90;;;;;;2093679;28;20203;-61
2023/04/04 05:38:33;;;;;;;9.40;4.00;;;-3.80;99.90;;;;;;2093112;28;20277;-62
2023/04/04 05:39:38;;;;;;;6.18;3.53;;;-3.70;99.90;;;;;;2093320;28;20189;-61
2023/04/04 05:40:44;;;;;;;4.80;3.08;;;-3.60;99.90;;;;;;2093038;28;20190;-61
2023/04/04 05:41:50;;;;;;;5.00;3.33;;;-3.60;99.90;;;;;;2092652;28;20183;-62
2023/04/04 05:42:57;;;;;;;3.97;3.03;;;-3.60;99.90;;;;;;2093232;28;20192;-62
2023/04/04 05:44:03;;;;;;;3.65;2.70;;;-3.50;99.90;;;;;;2093077;28;20214;-60
2023/04/04 05:45:05;;;;;;;6.57;3.00;;;-3.70;99.90;;;;;;2093269;28;20560;-62